sensor_id;sensor_type;location;lat;lon;timestamp;temperature;humidity
34873;DHT22;21084;51.098;14.506;2022-12-18T00:00:21;-3.80;99.90
34873;DHT22;21084;51.098;14.506;2022-12-18T00:02:51;-3.80;99.90
34873;DHT22;21084;51.098;14.506;2022-12-18T00:05:20;-3.80;99.90
34873;DHT22;21084;51.098;14.506;2022-12-18T00:07:48;-3.80;99.90
34873;DHT22;21084;51.098;14.506;2022-12-18T00:10:17;-3.80;99.90
34873;DHT22;21084;51.098;14.506;2022-12-18T00:12:45;-3.70;99.90
34873;DHT22;21084;51.098;14.506;2022-12-18T00:15:14;-3.80;99.90
34873;DHT22;21084;51.098;14.506;2022-12-18T00:17:42;-3.70;99.90
34873;DHT22;21084;51.098;14.506;2022-12-18T00:20:12;-3.70;99.90
34873;DHT22;21084;51.098;14.506;2022-12-18T00:22:41;-3.70;99.90
34873;DHT22;21084;51.098;14.506;2022-12-18T00:25:09;-3.70;99.90
34873;DHT22;21084;51.098;14.506;2022-12-18T00:27:37;-3.80;99.90
34873;DHT22;21084;51.098;14.506;2022-12-18T00:30:07;-3.80;99.90
34873;DHT22;21084;51.098;14.506;2022-12-18T00:32:35;-3.80;99.90
34873;DHT22;21084;51.098;14.506;2022-12-18T00:35:05;-3.80;99.90
34873;DHT22;21084;51.098;14.506;2022-12-18T00:37:35;-3.80;99.90
34873;DHT22;21084;51.098;14.506;2022-12-18T00:40:04;-3.80;99.90
34873;DHT22;21084;51.098;14.506;2022-12-18T00:42:33;-3.70;99.90
34873;DHT22;21084;51.098;14.506;2022-12-18T00:45:15;-3.90;99.90
34873;DHT22;21084;51.098;14.506;2022-12-18T00:47:44;-3.90;99.90
34873;DHT22;21084;51.098;14.506;2022-12-18T00:50:12;-3.90;99.90
34873;DHT22;21084;51.098;14.506;2022-12-18T00:52:42;-3.90;99.90
34873;DHT22;21084;51.098;14.506;2022-12-18T00:55:11;-3.90;99.90
34873;DHT22;21084;51.098;14.506;2022-12-18T00:57:40;-3.90;99.90
34873;DHT22;21084;51.098;14.506;2022-12-18T01:00:11;-3.90;99.90
34873;DHT22;21084;51.098;14.506;2022-12-18T01:02:41;-4.00;99.90
34873;DHT22;21084;51.098;14.506;2022-12-18T01:05:11;-4.00;99.90
34873;DHT22;21084;51.098;14.506;2022-12-18T01:07:41;-4.00;99.90
34873;DHT22;21084;51.098;14.506;2022-12-18T01:10:11;-4.00;99.90
34873;DHT22;21084;51.098;14.506;2022-12-18T01:12:40;-4.00;99.90
34873;DHT22;21084;51.098;14.506;2022-12-18T01:15:10;-3.90;99.90
34873;DHT22;21084;51.098;14.506;2022-12-18T01:17:39;-4.00;99.90
34873;DHT22;21084;51.098;14.506;2022-12-18T01:20:10;-4.00;99.90
34873;DHT22;21084;51.098;14.506;2022-12-18T01:22:39;-4.10;99.90
34873;DHT22;21084;51.098;14.506;2022-12-18T01:25:09;-4.20;99.90
34873;DHT22;21084;51.098;14.506;2022-12-18T01:27:37;-4.20;99.90
34873;DHT22;21084;51.098;14.506;2022-12-18T01:30:07;-4.20;99.90
34873;DHT22;21084;51.098;14.506;2022-12-18T01:32:35;-4.20;99.90
34873;DHT22;21084;51.098;14.506;2022-12-18T01:35:05;-4.20;99.90
34873;DHT22;21084;51.098;14.506;2022-12-18T01:37:34;-4.10;99.90
34873;DHT22;21084;51.098;14.506;2022-12-18T01:40:03;-4.10;99.90
34873;DHT22;21084;51.098;14.506;2022-12-18T01:42:33;-4.10;99.90
34873;DHT22;21084;51.098;14.506;2022-12-18T01:45:05;-4.10;99.90
34873;DHT22;21084;51.098;14.506;2022-12-18T01:47:38;-4.10;99.90
34873;DHT22;21084;51.098;14.506;2022-12-18T01:50:10;-4.10;99.90
34873;DHT22;21084;51.098;14.506;2022-12-18T01:52:41;-4.00;99.90
34873;DHT22;21084;51.098;14.506;2022-12-18T01:55:11;-4.00;99.90
34873;DHT22;21084;51.098;14.506;2022-12-18T01:57:42;-4.00;99.90
34873;DHT22;21084;51.098;14.506;2022-12-18T02:00:14;-4.00;99.90
34873;DHT22;21084;51.098;14.506;2022-12-18T02:02:44;-4.00;99.90
34873;DHT22;21084;51.098;14.506;2022-12-18T02:05:17;-4.00;99.90
34873;DHT22;21084;51.098;14.506;2022-12-18T02:07:55;-4.00;99.90
34873;DHT22;21084;51.098;14.506;2022-12-18T02:10:28;-4.10;99.90
34873;DHT22;21084;51.098;14.506;2022-12-18T02:13:04;-4.00;99.90
34873;DHT22;21084;51.098;14.506;2022-12-18T02:15:39;-4.00;99.90
34873;DHT22;21084;51.098;14.506;2022-12-18T02:18:12;-4.10;99.90
34873;DHT22;21084;51.098;14.506;2022-12-18T02:20:46;-4.10;99.90
34873;DHT22;21084;51.098;14.506;2022-12-18T02:23:26;-4.10;99.90
34873;DHT22;21084;51.098;14.506;2022-12-18T02:26:11;-4.20;99.90
34873;DHT22;21084;51.098;14.506;2022-12-18T02:28:43;-4.30;99.90
34873;DHT22;21084;51.098;14.506;2022-12-18T09:24:57;-3.50;99.90
34873;DHT22;21084;51.098;14.506;2022-12-18T09:27:25;-3.40;99.90
34873;DHT22;21084;51.098;14.506;2022-12-18T09:29:54;-3.40;99.90
34873;DHT22;21084;51.098;14.506;2022-12-18T09:32:22;-3.20;99.90
34873;DHT22;21084;51.098;14.506;2022-12-18T09:34:51;-3.10;99.90
34873;DHT22;21084;51.098;14.506;2022-12-18T09:37:19;-3.00;99.90
34873;DHT22;21084;51.098;14.506;2022-12-18T09:39:47;-2.80;99.90
34873;DHT22;21084;51.098;14.506;2022-12-18T09:42:20;-2.70;99.90
34873;DHT22;21084;51.098;14.506;2022-12-18T09:44:51;-3.00;99.90
34873;DHT22;21084;51.098;14.506;2022-12-18T09:47:24;-2.90;99.90
34873;DHT22;21084;51.098;14.506;2022-12-18T09:49:56;-2.70;99.90
34873;DHT22;21084;51.098;14.506;2022-12-18T09:52:29;-2.50;99.90
34873;DHT22;21084;51.098;14.506;2022-12-18T09:55:05;-2.70;99.90
34873;DHT22;21084;51.098;14.506;2022-12-18T09:57:39;-2.40;99.90
34873;DHT22;21084;51.098;14.506;2022-12-18T10:00:16;-2.30;99.90
34873;DHT22;21084;51.098;14.506;2022-12-18T10:02:46;-2.50;99.90
34873;DHT22;21084;51.098;14.506;2022-12-18T10:05:17;-2.60;99.90
34873;DHT22;21084;51.098;14.506;2022-12-18T10:07:54;-2.60;99.90
34873;DHT22;21084;51.098;14.506;2022-12-18T10:10:33;-3.10;99.90
34873;DHT22;21084;51.098;14.506;2022-12-18T10:13:20;-3.00;99.90
34873;DHT22;21084;51.098;14.506;2022-12-18T10:16:01;-2.80;99.90
34873;DHT22;21084;51.098;14.506;2022-12-18T10:18:46;-2.70;99.90
34873;DHT22;21084;51.098;14.506;2022-12-18T10:21:20;-2.60;99.90
34873;DHT22;21084;51.098;14.506;2022-12-18T10:23:56;-2.50;99.90
34873;DHT22;21084;51.098;14.506;2022-12-18T10:26:31;-2.80;99.90
34873;DHT22;21084;51.098;14.506;2022-12-18T10:29:09;-2.60;99.90
34873;DHT22;21084;51.098;14.506;2022-12-18T10:31:39;-2.70;99.90
34873;DHT22;21084;51.098;14.506;2022-12-18T10:34:09;-2.50;99.90
34873;DHT22;21084;51.098;14.506;2022-12-18T10:36:38;-2.40;99.90
34873;DHT22;21084;51.098;14.506;2022-12-18T10:39:17;-2.50;99.90
34873;DHT22;21084;51.098;14.506;2022-12-18T10:41:46;-2.30;99.90
34873;DHT22;21084;51.098;14.506;2022-12-18T10:44:20;-2.20;99.90
34873;DHT22;21084;51.098;14.506;2022-12-18T10:46:50;-2.10;99.90
34873;DHT22;21084;51.098;14.506;2022-12-18T10:49:25;-2.00;99.90
34873;DHT22;21084;51.098;14.506;2022-12-18T10:52:06;-1.90;99.90
34873;DHT22;21084;51.098;14.506;2022-12-18T10:54:36;-1.80;99.90
34873;DHT22;21084;51.098;14.506;2022-12-18T10:57:17;-2.10;99.90
34873;DHT22;21084;51.098;14.506;2022-12-18T10:59:58;-1.90;99.90
34873;DHT22;21084;51.098;14.506;2022-12-18T11:02:33;-2.00;99.90
34873;DHT22;21084;51.098;14.506;2022-12-18T11:05:09;-2.00;99.90
34873;DHT22;21084;51.098;14.506;2022-12-18T11:07:52;-2.20;99.90
34873;DHT22;21084;51.098;14.506;2022-12-18T11:10:22;-2.00;99.90
34873;DHT22;21084;51.098;14.506;2022-12-18T11:12:52;-1.90;99.90
34873;DHT22;21084;51.098;14.506;2022-12-18T11:15:25;-1.60;99.90
34873;DHT22;21084;51.098;14.506;2022-12-18T11:17:54;-1.50;99.90
34873;DHT22;21084;51.098;14.506;2022-12-18T11:20:30;-1.70;99.90
34873;DHT22;21084;51.098;14.506;2022-12-18T11:23:01;-1.50;99.90
34873;DHT22;21084;51.098;14.506;2022-12-18T11:25:31;-1.60;99.90
34873;DHT22;21084;51.098;14.506;2022-12-18T11:28:04;-1.70;99.90
34873;DHT22;21084;51.098;14.506;2022-12-18T11:30:35;-1.70;99.90
34873;DHT22;21084;51.098;14.506;2022-12-18T11:33:06;-1.80;99.90
34873;DHT22;21084;51.098;14.506;2022-12-18T11:35:42;-1.80;99.90
34873;DHT22;21084;51.098;14.506;2022-12-18T11:38:18;-1.90;99.90
34873;DHT22;21084;51.098;14.506;2022-12-18T11:40:54;-2.00;99.90
34873;DHT22;21084;51.098;14.506;2022-12-18T11:43:27;-1.70;99.90
34873;DHT22;21084;51.098;14.506;2022-12-18T11:46:01;-1.30;99.90
34873;DHT22;21084;51.098;14.506;2022-12-18T11:48:33;-1.20;99.90
34873;DHT22;21084;51.098;14.506;2022-12-18T11:51:09;-1.50;99.90
34873;DHT22;21084;51.098;14.506;2022-12-18T11:53:39;-0.90;99.90
34873;DHT22;21084;51.098;14.506;2022-12-18T11:56:23;2.70;99.90
34873;DHT22;21084;51.098;14.506;2022-12-18T11:58:58;3.20;99.90
34873;DHT22;21084;51.098;14.506;2022-12-18T12:01:39;4.00;99.90
34873;DHT22;21084;51.098;14.506;2022-12-18T12:04:38;5.20;99.90
34873;DHT22;21084;51.098;14.506;2022-12-18T12:07:20;6.00;99.90
34873;DHT22;21084;51.098;14.506;2022-12-18T12:09:56;7.50;99.90
34873;DHT22;21084;51.098;14.506;2022-12-18T12:12:35;9.50;99.90
34873;DHT22;21084;51.098;14.506;2022-12-18T12:15:25;8.50;95.10
34873;DHT22;21084;51.098;14.506;2022-12-18T12:18:03;10.60;96.30
34873;DHT22;21084;51.098;14.506;2022-12-18T12:20:48;10.70;89.20
34873;DHT22;21084;51.098;14.506;2022-12-18T12:23:26;6.60;93.00
34873;DHT22;21084;51.098;14.506;2022-12-18T12:25:59;8.20;91.50
34873;DHT22;21084;51.098;14.506;2022-12-18T12:28:47;10.30;93.00
34873;DHT22;21084;51.098;14.506;2022-12-18T12:31:30;12.00;83.30
34873;DHT22;21084;51.098;14.506;2022-12-18T12:34:09;7.00;79.20
34873;DHT22;21084;51.098;14.506;2022-12-18T12:36:51;6.40;92.70
34873;DHT22;21084;51.098;14.506;2022-12-18T12:39:23;9.00;93.10
34873;DHT22;21084;51.098;14.506;2022-12-18T12:41:55;10.30;85.70
34873;DHT22;21084;51.098;14.506;2022-12-18T12:44:44;11.40;81.70
34873;DHT22;21084;51.098;14.506;2022-12-18T12:47:23;12.40;81.60
34873;DHT22;21084;51.098;14.506;2022-12-18T12:49:54;12.20;73.90
34873;DHT22;21084;51.098;14.506;2022-12-18T12:52:29;12.80;73.70
34873;DHT22;21084;51.098;14.506;2022-12-18T12:55:00;12.10;67.80
34873;DHT22;21084;51.098;14.506;2022-12-18T12:57:34;10.30;67.00
34873;DHT22;21084;51.098;14.506;2022-12-18T13:00:07;9.00;75.10
34873;DHT22;21084;51.098;14.506;2022-12-18T13:02:44;9.20;78.40
34873;DHT22;21084;51.098;14.506;2022-12-18T13:05:21;11.40;77.70
34873;DHT22;21084;51.098;14.506;2022-12-18T13:07:55;12.00;73.20
34873;DHT22;21084;51.098;14.506;2022-12-18T13:10:31;12.60;70.60
34873;DHT22;21084;51.098;14.506;2022-12-18T13:13:02;13.10;66.20
34873;DHT22;21084;51.098;14.506;2022-12-18T13:15:34;12.80;66.90
34873;DHT22;21084;51.098;14.506;2022-12-18T13:18:15;11.40;66.20
34873;DHT22;21084;51.098;14.506;2022-12-18T13:20:48;10.60;67.90
34873;DHT22;21084;51.098;14.506;2022-12-18T13:23:28;10.80;68.30
34873;DHT22;21084;51.098;14.506;2022-12-18T13:25:58;9.20;70.10
34873;DHT22;21084;51.098;14.506;2022-12-18T13:28:51;9.70;71.30
34873;DHT22;21084;51.098;14.506;2022-12-18T13:34:35;9.10;74.70
34873;DHT22;21084;51.098;14.506;2022-12-18T13:37:39;9.10;73.10
34873;DHT22;21084;51.098;14.506;2022-12-18T13:43:38;7.80;71.80
34873;DHT22;21084;51.098;14.506;2022-12-18T13:46:28;6.50;74.20
34873;DHT22;21084;51.098;14.506;2022-12-18T13:49:01;5.90;79.50
34873;DHT22;21084;51.098;14.506;2022-12-18T13:51:32;6.60;79.40
34873;DHT22;21084;51.098;14.506;2022-12-18T13:54:06;7.50;78.30
34873;DHT22;21084;51.098;14.506;2022-12-18T13:56:44;7.10;78.50
34873;DHT22;21084;51.098;14.506;2022-12-18T13:59:16;7.40;75.90
34873;DHT22;21084;51.098;14.506;2022-12-18T14:01:51;7.00;75.80
34873;DHT22;21084;51.098;14.506;2022-12-18T14:04:23;5.40;78.70
34873;DHT22;21084;51.098;14.506;2022-12-18T14:06:55;5.60;80.70
34873;DHT22;21084;51.098;14.506;2022-12-18T14:09:28;5.40;78.80
34873;DHT22;21084;51.098;14.506;2022-12-18T14:11:59;4.20;84.20
34873;DHT22;21084;51.098;14.506;2022-12-18T14:14:47;2.80;87.80
34873;DHT22;21084;51.098;14.506;2022-12-18T14:17:21;2.20;91.60
34873;DHT22;21084;51.098;14.506;2022-12-18T14:19:51;1.30;94.90
34873;DHT22;21084;51.098;14.506;2022-12-18T14:22:21;0.70;98.60
34873;DHT22;21084;51.098;14.506;2022-12-18T14:25:21;0.10;99.90
34873;DHT22;21084;51.098;14.506;2022-12-18T14:27:51;-0.60;99.90
34873;DHT22;21084;51.098;14.506;2022-12-18T14:30:25;-1.00;99.90
34873;DHT22;21084;51.098;14.506;2022-12-18T14:33:05;-1.20;99.90
34873;DHT22;21084;51.098;14.506;2022-12-18T14:35:37;-1.30;99.90
34873;DHT22;21084;51.098;14.506;2022-12-18T14:38:24;-1.50;99.90
34873;DHT22;21084;51.098;14.506;2022-12-18T14:40:56;-1.70;99.90
34873;DHT22;21084;51.098;14.506;2022-12-18T14:43:26;-1.80;99.90
34873;DHT22;21084;51.098;14.506;2022-12-18T14:45:55;-1.90;99.90
34873;DHT22;21084;51.098;14.506;2022-12-18T14:48:36;-1.90;99.90
34873;DHT22;21084;51.098;14.506;2022-12-18T14:51:12;-2.00;99.90
34873;DHT22;21084;51.098;14.506;2022-12-18T14:53:45;-2.10;99.90
34873;DHT22;21084;51.098;14.506;2022-12-18T14:56:24;-2.20;99.90
34873;DHT22;21084;51.098;14.506;2022-12-18T14:58:55;-2.20;99.90
34873;DHT22;21084;51.098;14.506;2022-12-18T15:01:27;-2.40;99.90
34873;DHT22;21084;51.098;14.506;2022-12-18T15:03:57;-2.60;99.90
34873;DHT22;21084;51.098;14.506;2022-12-18T15:06:29;-2.90;99.90
34873;DHT22;21084;51.098;14.506;2022-12-18T15:09:00;-2.80;99.90
34873;DHT22;21084;51.098;14.506;2022-12-18T15:11:35;-2.80;99.90
34873;DHT22;21084;51.098;14.506;2022-12-18T15:14:32;-2.90;99.90
34873;DHT22;21084;51.098;14.506;2022-12-18T15:17:04;-3.00;99.90
34873;DHT22;21084;51.098;14.506;2022-12-18T15:19:37;-3.10;99.90
34873;DHT22;21084;51.098;14.506;2022-12-18T15:22:18;-3.10;99.90
34873;DHT22;21084;51.098;14.506;2022-12-18T15:24:49;-3.30;99.90
34873;DHT22;21084;51.098;14.506;2022-12-18T15:27:31;-3.30;99.90
34873;DHT22;21084;51.098;14.506;2022-12-18T15:30:16;-3.40;99.90
34873;DHT22;21084;51.098;14.506;2022-12-18T15:32:46;-3.50;99.90
34873;DHT22;21084;51.098;14.506;2022-12-18T15:35:21;-3.70;99.90
34873;DHT22;21084;51.098;14.506;2022-12-18T15:37:50;-3.80;99.90
34873;DHT22;21084;51.098;14.506;2022-12-18T15:40:21;-3.80;99.90
34873;DHT22;21084;51.098;14.506;2022-12-18T15:42:53;-3.90;99.90
34873;DHT22;21084;51.098;14.506;2022-12-18T15:45:40;-4.00;99.90
34873;DHT22;21084;51.098;14.506;2022-12-18T15:48:18;-3.90;99.90
34873;DHT22;21084;51.098;14.506;2022-12-18T15:50:49;-4.00;99.90
34873;DHT22;21084;51.098;14.506;2022-12-18T15:53:19;-4.20;99.90
34873;DHT22;21084;51.098;14.506;2022-12-18T15:55:49;-4.20;99.90
34873;DHT22;21084;51.098;14.506;2022-12-18T15:58:36;-4.20;99.90
34873;DHT22;21084;51.098;14.506;2022-12-18T16:01:05;-4.20;99.90
34873;DHT22;21084;51.098;14.506;2022-12-18T16:03:36;-4.20;99.90
34873;DHT22;21084;51.098;14.506;2022-12-18T16:06:05;-4.20;99.90
34873;DHT22;21084;51.098;14.506;2022-12-18T16:08:34;-4.20;99.90
34873;DHT22;21084;51.098;14.506;2022-12-18T16:11:03;-4.30;99.90
34873;DHT22;21084;51.098;14.506;2022-12-18T16:13:32;-4.30;99.90
34873;DHT22;21084;51.098;14.506;2022-12-18T16:16:02;-4.30;99.90
34873;DHT22;21084;51.098;14.506;2022-12-18T16:18:31;-4.30;99.90
34873;DHT22;21084;51.098;14.506;2022-12-18T16:21:00;-4.40;99.90
34873;DHT22;21084;51.098;14.506;2022-12-18T16:23:29;-4.40;99.90
34873;DHT22;21084;51.098;14.506;2022-12-18T16:25:58;-4.40;99.90
34873;DHT22;21084;51.098;14.506;2022-12-18T16:28:27;-4.50;99.90
34873;DHT22;21084;51.098;14.506;2022-12-18T16:30:56;-4.40;99.90
34873;DHT22;21084;51.098;14.506;2022-12-18T16:33:26;-4.50;99.90
34873;DHT22;21084;51.098;14.506;2022-12-18T16:35:55;-4.50;99.90
34873;DHT22;21084;51.098;14.506;2022-12-18T16:38:24;-4.50;99.90
34873;DHT22;21084;51.098;14.506;2022-12-18T16:40:52;-4.50;99.90
34873;DHT22;21084;51.098;14.506;2022-12-18T16:43:38;-4.60;99.90
34873;DHT22;21084;51.098;14.506;2022-12-18T16:46:07;-4.60;99.90
34873;DHT22;21084;51.098;14.506;2022-12-18T16:48:38;-4.60;99.90
34873;DHT22;21084;51.098;14.506;2022-12-18T16:51:06;-4.60;99.90
34873;DHT22;21084;51.098;14.506;2022-12-18T16:53:35;-4.60;99.90
34873;DHT22;21084;51.098;14.506;2022-12-18T16:56:04;-4.70;99.90
34873;DHT22;21084;51.098;14.506;2022-12-18T16:58:33;-4.60;99.90
34873;DHT22;21084;51.098;14.506;2022-12-18T17:01:06;-4.60;99.90
34873;DHT22;21084;51.098;14.506;2022-12-18T17:03:37;-4.60;99.90
34873;DHT22;21084;51.098;14.506;2022-12-18T17:06:06;-4.70;99.90
34873;DHT22;21084;51.098;14.506;2022-12-18T17:08:37;-4.70;99.90
34873;DHT22;21084;51.098;14.506;2022-12-18T17:11:06;-4.80;99.90
34873;DHT22;21084;51.098;14.506;2022-12-18T17:13:35;-4.90;99.90
34873;DHT22;21084;51.098;14.506;2022-12-18T17:16:06;-4.90;99.90
34873;DHT22;21084;51.098;14.506;2022-12-18T17:18:36;-4.80;99.90
34873;DHT22;21084;51.098;14.506;2022-12-18T17:21:05;-4.90;99.90
34873;DHT22;21084;51.098;14.506;2022-12-18T17:23:36;-4.90;99.90
34873;DHT22;21084;51.098;14.506;2022-12-18T17:26:05;-4.90;99.90
34873;DHT22;21084;51.098;14.506;2022-12-18T17:28:37;-4.90;99.90
34873;DHT22;21084;51.098;14.506;2022-12-18T17:31:10;-4.90;99.90
34873;DHT22;21084;51.098;14.506;2022-12-18T17:33:41;-4.80;99.90
34873;DHT22;21084;51.098;14.506;2022-12-18T17:36:10;-4.80;99.90
34873;DHT22;21084;51.098;14.506;2022-12-18T17:38:42;-4.90;99.90
34873;DHT22;21084;51.098;14.506;2022-12-18T17:41:12;-4.90;99.90
34873;DHT22;21084;51.098;14.506;2022-12-18T17:43:40;-4.90;99.90
34873;DHT22;21084;51.098;14.506;2022-12-18T17:46:13;-4.90;99.90
34873;DHT22;21084;51.098;14.506;2022-12-18T17:48:43;-4.90;99.90
34873;DHT22;21084;51.098;14.506;2022-12-18T17:51:12;-4.80;99.90
34873;DHT22;21084;51.098;14.506;2022-12-18T17:53:41;-4.70;99.90
34873;DHT22;21084;51.098;14.506;2022-12-18T17:56:12;-4.80;99.90
34873;DHT22;21084;51.098;14.506;2022-12-18T17:58:41;-4.70;99.90
34873;DHT22;21084;51.098;14.506;2022-12-18T18:01:12;-4.70;99.90
34873;DHT22;21084;51.098;14.506;2022-12-18T18:03:44;-4.70;99.90
34873;DHT22;21084;51.098;14.506;2022-12-18T18:06:20;-4.80;99.90
34873;DHT22;21084;51.098;14.506;2022-12-18T18:08:49;-4.80;99.90
34873;DHT22;21084;51.098;14.506;2022-12-18T18:11:19;-4.90;99.90
34873;DHT22;21084;51.098;14.506;2022-12-18T18:14:07;-4.80;99.90
34873;DHT22;21084;51.098;14.506;2022-12-18T18:16:39;-4.80;99.90
34873;DHT22;21084;51.098;14.506;2022-12-18T18:19:11;-4.80;99.90
34873;DHT22;21084;51.098;14.506;2022-12-18T18:21:42;-4.80;99.90
34873;DHT22;21084;51.098;14.506;2022-12-18T18:24:14;-4.80;99.90
34873;DHT22;21084;51.098;14.506;2022-12-18T18:26:43;-4.70;99.90
34873;DHT22;21084;51.098;14.506;2022-12-18T18:29:15;-4.70;99.90
34873;DHT22;21084;51.098;14.506;2022-12-18T18:31:44;-4.80;99.90
34873;DHT22;21084;51.098;14.506;2022-12-18T18:34:15;-4.70;99.90
34873;DHT22;21084;51.098;14.506;2022-12-18T18:36:44;-4.70;99.90
34873;DHT22;21084;51.098;14.506;2022-12-18T18:39:13;-4.70;99.90
34873;DHT22;21084;51.098;14.506;2022-12-18T18:41:42;-4.70;99.90
34873;DHT22;21084;51.098;14.506;2022-12-18T18:44:15;-4.60;99.90
34873;DHT22;21084;51.098;14.506;2022-12-18T18:46:44;-4.60;99.90
34873;DHT22;21084;51.098;14.506;2022-12-18T18:49:14;-4.60;99.90
34873;DHT22;21084;51.098;14.506;2022-12-18T18:51:43;-4.60;99.90
34873;DHT22;21084;51.098;14.506;2022-12-18T18:54:12;-4.50;99.90
34873;DHT22;21084;51.098;14.506;2022-12-18T18:56:41;-4.40;99.90
34873;DHT22;21084;51.098;14.506;2022-12-18T18:59:30;-4.40;99.90
34873;DHT22;21084;51.098;14.506;2022-12-18T19:01:59;-4.40;99.90
34873;DHT22;21084;51.098;14.506;2022-12-18T19:04:32;-4.30;99.90
34873;DHT22;21084;51.098;14.506;2022-12-18T19:07:27;-4.20;99.90
34873;DHT22;21084;51.098;14.506;2022-12-18T19:09:58;-4.20;99.90
34873;DHT22;21084;51.098;14.506;2022-12-18T19:12:32;-4.20;99.90
34873;DHT22;21084;51.098;14.506;2022-12-18T19:15:18;-4.30;99.90
34873;DHT22;21084;51.098;14.506;2022-12-18T19:17:48;-4.20;99.90
34873;DHT22;21084;51.098;14.506;2022-12-18T19:20:18;-4.30;99.90
34873;DHT22;21084;51.098;14.506;2022-12-18T19:22:47;-4.20;99.90
34873;DHT22;21084;51.098;14.506;2022-12-18T19:25:23;-4.20;99.90
34873;DHT22;21084;51.098;14.506;2022-12-18T19:28:08;-4.30;99.90
34873;DHT22;21084;51.098;14.506;2022-12-18T19:30:51;-4.30;99.90
34873;DHT22;21084;51.098;14.506;2022-12-18T19:33:27;-4.20;99.90
34873;DHT22;21084;51.098;14.506;2022-12-18T19:36:17;-4.20;99.90
34873;DHT22;21084;51.098;14.506;2022-12-18T19:38:46;-4.20;99.90
34873;DHT22;21084;51.098;14.506;2022-12-18T19:41:16;-4.20;99.90
34873;DHT22;21084;51.098;14.506;2022-12-18T19:43:45;-4.20;99.90
34873;DHT22;21084;51.098;14.506;2022-12-18T19:46:16;-4.20;99.90
34873;DHT22;21084;51.098;14.506;2022-12-18T19:48:45;-4.20;99.90
34873;DHT22;21084;51.098;14.506;2022-12-18T19:51:18;-4.20;99.90
34873;DHT22;21084;51.098;14.506;2022-12-18T19:53:47;-4.20;99.90
34873;DHT22;21084;51.098;14.506;2022-12-18T19:56:26;-4.20;99.90
34873;DHT22;21084;51.098;14.506;2022-12-18T19:58:55;-4.20;99.90
34873;DHT22;21084;51.098;14.506;2022-12-18T20:01:25;-4.20;99.90
34873;DHT22;21084;51.098;14.506;2022-12-18T20:03:55;-4.30;99.90
34873;DHT22;21084;51.098;14.506;2022-12-18T20:06:28;-4.30;99.90
34873;DHT22;21084;51.098;14.506;2022-12-18T20:08:59;-4.30;99.90
34873;DHT22;21084;51.098;14.506;2022-12-18T20:11:28;-4.40;99.90
34873;DHT22;21084;51.098;14.506;2022-12-18T20:13:57;-4.40;99.90
34873;DHT22;21084;51.098;14.506;2022-12-18T20:16:25;-4.40;99.90
34873;DHT22;21084;51.098;14.506;2022-12-18T20:18:55;-4.50;99.90
34873;DHT22;21084;51.098;14.506;2022-12-18T20:21:24;-4.30;99.90
34873;DHT22;21084;51.098;14.506;2022-12-18T20:23:54;-4.30;99.90
34873;DHT22;21084;51.098;14.506;2022-12-18T20:26:23;-4.30;99.90
34873;DHT22;21084;51.098;14.506;2022-12-18T20:28:53;-4.30;99.90
34873;DHT22;21084;51.098;14.506;2022-12-18T20:31:23;-4.30;99.90
34873;DHT22;21084;51.098;14.506;2022-12-18T20:33:52;-4.40;99.90
34873;DHT22;21084;51.098;14.506;2022-12-18T20:36:28;-4.30;99.90
34873;DHT22;21084;51.098;14.506;2022-12-18T20:38:59;-4.30;99.90
34873;DHT22;21084;51.098;14.506;2022-12-18T20:41:31;-4.20;99.90
34873;DHT22;21084;51.098;14.506;2022-12-18T20:44:06;-4.20;99.90
34873;DHT22;21084;51.098;14.506;2022-12-18T20:46:51;-4.10;99.90
34873;DHT22;21084;51.098;14.506;2022-12-18T20:49:21;-4.00;99.90
34873;DHT22;21084;51.098;14.506;2022-12-18T20:51:50;-3.90;99.90
34873;DHT22;21084;51.098;14.506;2022-12-18T20:54:21;-3.80;99.90
34873;DHT22;21084;51.098;14.506;2022-12-18T20:56:50;-3.80;99.90
34873;DHT22;21084;51.098;14.506;2022-12-18T20:59:19;-3.70;99.90
34873;DHT22;21084;51.098;14.506;2022-12-18T21:01:50;-3.70;99.90
34873;DHT22;21084;51.098;14.506;2022-12-18T21:04:20;-3.70;99.90
34873;DHT22;21084;51.098;14.506;2022-12-18T21:06:49;-3.70;99.90
34873;DHT22;21084;51.098;14.506;2022-12-18T21:09:31;-3.70;99.90
34873;DHT22;21084;51.098;14.506;2022-12-18T21:12:07;-3.60;99.90
34873;DHT22;21084;51.098;14.506;2022-12-18T21:15:02;-3.60;99.90
34873;DHT22;21084;51.098;14.506;2022-12-18T21:17:31;-3.60;99.90
34873;DHT22;21084;51.098;14.506;2022-12-18T21:20:10;-3.50;99.90
34873;DHT22;21084;51.098;14.506;2022-12-18T21:22:44;-3.60;99.90
34873;DHT22;21084;51.098;14.506;2022-12-18T21:25:14;-3.60;99.90
34873;DHT22;21084;51.098;14.506;2022-12-18T21:27:42;-3.60;99.90
34873;DHT22;21084;51.098;14.506;2022-12-18T21:30:11;-3.70;99.90
34873;DHT22;21084;51.098;14.506;2022-12-18T21:32:40;-3.70;99.90
34873;DHT22;21084;51.098;14.506;2022-12-18T21:35:09;-3.70;99.90
34873;DHT22;21084;51.098;14.506;2022-12-18T21:37:37;-3.70;99.90
34873;DHT22;21084;51.098;14.506;2022-12-18T21:40:07;-3.70;99.90
34873;DHT22;21084;51.098;14.506;2022-12-18T21:42:37;-3.70;99.90
34873;DHT22;21084;51.098;14.506;2022-12-18T21:45:23;-3.70;99.90
34873;DHT22;21084;51.098;14.506;2022-12-18T21:47:52;-3.70;99.90
34873;DHT22;21084;51.098;14.506;2022-12-18T21:50:20;-3.70;99.90
34873;DHT22;21084;51.098;14.506;2022-12-18T21:52:49;-3.70;99.90
34873;DHT22;21084;51.098;14.506;2022-12-18T21:55:18;-3.70;99.90
34873;DHT22;21084;51.098;14.506;2022-12-18T21:57:48;-3.80;99.90
34873;DHT22;21084;51.098;14.506;2022-12-18T22:00:16;-3.80;99.90
34873;DHT22;21084;51.098;14.506;2022-12-18T22:02:46;-3.80;99.90
34873;DHT22;21084;51.098;14.506;2022-12-18T22:05:35;-3.90;99.90
34873;DHT22;21084;51.098;14.506;2022-12-18T22:08:03;-3.80;99.90
34873;DHT22;21084;51.098;14.506;2022-12-18T22:10:33;-3.80;99.90
34873;DHT22;21084;51.098;14.506;2022-12-18T22:13:04;-3.70;99.90
34873;DHT22;21084;51.098;14.506;2022-12-18T22:15:33;-3.80;99.90
34873;DHT22;21084;51.098;14.506;2022-12-18T22:18:01;-3.80;99.90
34873;DHT22;21084;51.098;14.506;2022-12-18T22:20:30;-3.80;99.90
34873;DHT22;21084;51.098;14.506;2022-12-18T22:22:59;-3.80;99.90
34873;DHT22;21084;51.098;14.506;2022-12-18T22:25:33;-3.80;99.90
34873;DHT22;21084;51.098;14.506;2022-12-18T22:28:07;-3.80;99.90
34873;DHT22;21084;51.098;14.506;2022-12-18T22:30:53;-3.70;99.90
34873;DHT22;21084;51.098;14.506;2022-12-18T22:33:26;-3.60;99.90
34873;DHT22;21084;51.098;14.506;2022-12-18T22:35:55;-3.60;99.90
34873;DHT22;21084;51.098;14.506;2022-12-18T22:38:23;-3.60;99.90
34873;DHT22;21084;51.098;14.506;2022-12-18T22:40:53;-3.60;99.90
34873;DHT22;21084;51.098;14.506;2022-12-18T22:43:23;-3.60;99.90
34873;DHT22;21084;51.098;14.506;2022-12-18T22:45:52;-3.60;99.90
34873;DHT22;21084;51.098;14.506;2022-12-18T22:48:21;-3.60;99.90
34873;DHT22;21084;51.098;14.506;2022-12-18T22:50:49;-3.60;99.90
34873;DHT22;21084;51.098;14.506;2022-12-18T22:53:25;-3.60;99.90